Terminal Aerodrome Forecast
Issued by NWS Memphis, TN

Home | Current Version | Previous Version | Text Only | Print | Product List | Glossary On
Versions: 1 2 3 4 5 6 7 8 9 10 11 12 13 14 15 16 17 18 19 20 21 22 23 24 25 26
000
FTUS44 KMEG 270528
TAFMKL
TAF
KMKL 270528Z 2706/2806 14007KT P6SM VCSH SCT009 OVC015
     FM270800 14006KT 4SM -SHRA BKN007 OVC012
     FM271600 16008KT 6SM BR VCSH BKN015
     FM271900 16007KT 6SM -SHRA BR VCTS SCT025CB OVC040
     FM280000 14004KT P6SM BKN040=

USA.gov is the U.S. government's official web portal to all federal, state and local government web resources and services.